Share

Brodhead, KY

K. Bracketts Weather Station 39 N (KKYCRABO2) Elev 912 ft | 37.47 °N, 84.51 °W | Change Station

Current weather conditions updated 2 seconds ago

Clear
Clear
48.6 °F
Feels Like 49 °F
N
0.0
Wind Variable Wind from ESE
Gusts 1.6 mph
Sunrise 7:00 AM
Sunset 8:14 PM
Moon Waning Gibbous

Tomorrow is forecast to be Cooler than today.

Pressure 30.30 in
Visibility 10.0 miles
Clouds Clear
Windchill 49 °F
Dew Point 40 °F
Humidity 73%
Rainfall 0.00 in
Snow Depth Not available.
UV 0 out of 16
Pollen 10.40 out of 12
Air Quality Not available.
Flu Activity Sporadic
METAR KDVK 180335Z AUTO 00000KT 10SM CLR 08/01 A3030 RMK AO2

More Conditions Fewer Conditions

Pressure 30.30 in
Visibility 10.0 miles
Clouds Clear
Windchill 49 °F
Dew Point 40 °F
Humidity 73%
Rainfall 0.00 in
Snow Depth Not available.
UV 0 out of 16
Pollen 10.40 out of 12
Air Quality Not available.
Flu Activity Sporadic
METAR KDVK 180335Z AUTO 00000KT 10SM CLR 08/01 A3030 RMK AO2

More Conditions Fewer Conditions

10-Day Forecast

Almanac

Astronomy

Apr. 17, 2014 Rise Set
Actual Time 7:00 AM EDT 8:14 PM EDT
Civil Twilight 6:33 AM EDT 8:41 PM EDT
Nautical Twilight 6:01 AM EDT 9:14 PM EDT
Astronomical Twilight 5:27 AM EDT 9:48 PM EDT
Moon 10:57 PM EDT (4/17) 8:33 AM EDT (4/17)
Length of Visible Light 14h 08m
Length of Day
13h 14m
Tomorrow will be 2m 15s longer.
Waning Gibbous, 91% of the Moon is Illuminated
Today
Waning Gibbous
Apr 22
Last Quarter
Apr 29
New
May 6
First Quarter
May 14
Full

Today's Extremes

State Highs State Lows

Community

  • SUNRISE THROUGH THE TREES.
    SUNRISE THROUGH THE TREES.
  • Dog Wood Blossoms
    Dog Wood Blossoms
  • Morning Light
    Morning Light
  • New Day
    New Day
  • Lake Michigan Sunrise
    Lake Michigan Sunrise

WunderPhotos

Upload Photos

1,702,244 photos uploaded!

WunderBlogs® & News

Nearby

Snow Depth

Station Depth Elevation
No new snow has been reported.

Coastal Water Temperatures

Place Temperature
No Stations Reporting

Earthquake Activity

City Distance Mag. Time & Date
Englewood, Tennessee 132 miles 2.8 10:34 PM EDT
2014-04-12
Minimum magnitude displayed is 2.5.

Nearby Weather Stations

Station Location Temp. Windchill Dew Point Humidity Wind Precip. Elev Updated Type
K. Bracketts Weather Station 39 N, Crab Orchard, KY 48.6 °F 49 °F 40 °F 73% ESE  at  0.0 mph 0.00 in / hr 912 ft 11:43 PM EDT Rapid Fire
HALLS BACKYARD WEATHER, SCIENCE HILL, KY 50.1 °F - 34 °F 54% SW  at  0.0 mph 0.00 in / hr 1109 ft 11:43 PM EDT Normal
Napier Mountain, London, KY 57.4 °F - 28 °F 33% SW  at  1.6 mph 0.00 in / hr 1280 ft 11:43 PM EDT Rapid Fire
RAWS SOMERSET KY, Ferguson, KY 59 °F - 30 °F 33% SSE  at  3 mph 0.00 in / hr 920 ft 10:01 PM EDT MADIS

Show More Stations Show Fewer Stations

What do you think?

We're not finished. Please let us know what you like, what you don't like, and what you are still missing.